Estación Meteorológica Peña el Pijo (Robertgarden) [ 06/25/18 14:03:56 CEST ]

Fecha Hora Presion(HPa) Temp (°C) Humedad % Rocio (°C) Viento ( m/s) Direccion Lluvia 1Hora(mm) Lluvia 24H(mm) LLuvia Total(mm)
2018-Jun-24 01:01:46 1012.300 15.9 61 8.4         266.25
2018-Jun-24 02:01:46 1012.200 14.8 64 8.0         266.25
2018-Jun-24 03:01:39 1012.000 13.5 68 7.7         266.25
2018-Jun-24 04:01:43 1011.600 12.6 72 7.7         266.25
2018-Jun-24 05:10:04 1011.500 11.7 74 7.2         266.25
2018-Jun-24 06:01:44 1011.400 11.3 75 7.0         266.25
2018-Jun-24 07:01:47 1011.500 10.8 76 6.7         266.25
2018-Jun-24 08:01:46 1011.400 12.9 77 8.9         266.25
2018-Jun-24 09:01:54 1011.400 18.9 63 11.7         266.25
2018-Jun-24 10:02:00 1011.200 25.9 44 12.7         266.25
2018-Jun-24 11:01:52 1011.100 30.4 33 12.2         266.25
2018-Jun-24 12:01:40 1011.300 33.9 28 12.7         266.25
2018-Jun-24 13:01:42 1010.900 35.9 26 13.2         266.25
2018-Jun-24 14:01:55 1010.600 36.4 24 12.4         266.25
2018-Jun-24 15:02:01 1010.100 36.9 25 13.4         266.25
2018-Jun-24 16:01:46 1009.900 36.8 27 14.6         266.25
2018-Jun-24 17:01:44 1009.500 36.1 26 13.3         266.25
2018-Jun-24 18:01:55 1009.300 34.4 28 13.1         266.25
2018-Jun-24 19:01:56 1009.100 32.1 31 12.8         266.25
2018-Jun-24 20:01:55 1009.600 31.6 35 14.2         266.25
2018-Jun-24 21:01:48 1009.800 27.5 42 13.4         266.25
2018-Jun-24 22:01:46 1010.100 24.6 49 13.2         266.25
2018-Jun-24 23:01:41 1010.900 21.5 58 12.9         266.25

Temperatura Máxima:36°    Temperatura Mínima:10°
Presión Máxima:1012.300 Hpa    Presión Mínima:1009.100 Hpa


Volver